Time;durP1;ratioP1;P1;durP2;ratioP2;P2;SDS_P1;SDS_P2;PMS_P1;PMS_P2;Temp;Humidity;BMP_temperature;BMP_pressure;BME280_temperature;BME280_humidity;BME280_pressure;Samples;Min_cycle;Max_cycle;Signal;HPM_P1;HPM_P2
2021/03/10 00:00:07;;;;;;;15.32;8.73;;;;;;;;;;5015564;28;20140;-52
2021/03/10 00:02:34;;;;;;;10.93;7.03;;;;;;;;;;4998254;28;20030;-49
2021/03/10 00:05:00;;;;;;;14.07;8.80;;;;;;;;;;5015743;28;20061;-49
2021/03/10 00:07:26;;;;;;;17.27;9.05;;;;;;;;;;5015911;28;20034;-50
2021/03/10 00:09:52;;;;;;;13.50;8.90;;;;;;;;;;5015299;28;20537;-47
2021/03/10 00:12:19;;;;;;;12.80;7.95;;;;;;;;;;5015564;28;20110;-47
2021/03/10 00:14:45;;;;;;;14.25;8.80;;;;;;;;;;5015399;28;20084;-46
2021/03/10 00:17:11;;;;;;;15.50;8.93;;;;;;;;;;5015571;28;20022;-45
2021/03/10 00:19:37;;;;;;;15.50;9.20;;;;;;;;;;4998025;28;20041;-47
2021/03/10 00:22:03;;;;;;;11.75;7.75;;;;;;;;;;5015708;28;20101;-47
2021/03/10 00:24:29;;;;;;;14.70;8.27;;;;;;;;;;5015428;28;20461;-47
2021/03/10 00:26:56;;;;;;;14.50;9.50;;;;;;;;;;5015489;28;20485;-47
2021/03/10 00:29:22;;;;;;;19.50;9.55;;;;;;;;;;5015327;28;20125;-46
2021/03/10 00:31:48;;;;;;;15.75;8.85;;;;;;;;;;5015495;28;20026;-46
2021/03/10 00:34:14;;;;;;;13.40;8.95;;;;;;;;;;5015249;28;20120;-48
2021/03/10 00:36:40;;;;;;;15.45;8.75;;;;;;;;;;5015397;28;20108;-44
2021/03/10 00:39:06;;;;;;;13.27;8.43;;;;;;;;;;5015064;28;20034;-46
2021/03/10 00:41:32;;;;;;;15.73;8.57;;;;;;;;;;5015122;28;20347;-46
2021/03/10 00:43:58;;;;;;;14.80;9.20;;;;;;;;;;5015038;28;20116;-44
2021/03/10 00:46:24;;;;;;;13.65;8.32;;;;;;;;;;5015272;28;20085;-47
2021/03/10 00:48:50;;;;;;;14.65;9.13;;;;;;;;;;5015310;28;20732;-47
2021/03/10 00:51:16;;;;;;;13.63;9.02;;;;;;;;;;5014844;28;20064;-47
2021/03/10 00:53:43;;;;;;;14.32;8.65;;;;;;;;;;5014288;28;20111;-47
2021/03/10 00:56:09;;;;;;;13.20;8.02;;;;;;;;;;5014669;28;20026;-45
2021/03/10 00:58:35;;;;;;;15.85;8.30;;;;;;;;;;5014606;28;20041;-47
2021/03/10 01:01:01;;;;;;;13.85;8.90;;;;;;;;;;5014611;28;20489;-54
2021/03/10 01:03:27;;;;;;;12.68;8.55;;;;;;;;;;5014665;28;20026;-45
2021/03/10 01:05:53;;;;;;;13.88;8.90;;;;;;;;;;5014745;28;20026;-46
2021/03/10 01:08:20;;;;;;;16.05;8.55;;;;;;;;;;5014542;28;20033;-45
2021/03/10 01:10:47;;;;;;;12.73;8.13;;;;;;;;;;5014418;28;20033;-45
2021/03/10 01:13:13;;;;;;;13.05;8.02;;;;;;;;;;5014549;28;20050;-46
2021/03/10 01:15:40;;;;;;;11.93;7.60;;;;;;;;;;5014284;28;20028;-46
2021/03/10 01:18:06;;;;;;;13.32;8.45;;;;;;;;;;5014363;28;20041;-46
2021/03/10 01:20:32;;;;;;;13.35;8.15;;;;;;;;;;5014672;28;20073;-46
2021/03/10 01:22:58;;;;;;;12.80;7.63;;;;;;;;;;5014403;28;20038;-46
2021/03/10 01:25:25;;;;;;;11.27;7.68;;;;;;;;;;5014185;28;20038;-48
2021/03/10 01:27:51;;;;;;;13.88;8.02;;;;;;;;;;5014376;28;20037;-50
2021/03/10 01:30:17;;;;;;;13.27;8.20;;;;;;;;;;5013726;28;20124;-46
2021/03/10 01:32:44;;;;;;;15.38;7.95;;;;;;;;;;5014323;28;20365;-46
2021/03/10 01:35:10;;;;;;;12.30;7.10;;;;;;;;;;5015305;28;20040;-47
2021/03/10 01:37:37;;;;;;;15.13;7.75;;;;;;;;;;5014286;28;20021;-51
2021/03/10 01:40:10;;;;;;;13.55;7.75;;;;;;;;;;5014311;28;20061;-49
2021/03/10 01:42:36;;;;;;;13.00;7.25;;;;;;;;;;5013763;28;20030;-47
2021/03/10 01:45:03;;;;;;;11.90;7.07;;;;;;;;;;5013845;28;20033;-49
2021/03/10 01:47:29;;;;;;;13.18;7.95;;;;;;;;;;5013878;28;20478;-49
2021/03/10 01:49:56;;;;;;;10.80;7.40;;;;;;;;;;5013676;28;20048;-52
2021/03/10 01:52:22;;;;;;;12.60;7.53;;;;;;;;;;5013915;28;20032;-46
2021/03/10 01:54:48;;;;;;;10.98;6.35;;;;;;;;;;5013676;28;20030;-48
2021/03/10 01:57:14;;;;;;;11.68;7.43;;;;;;;;;;5013364;28;20029;-45
2021/03/10 01:59:41;;;;;;;12.13;7.25;;;;;;;;;;5014861;28;20036;-48
2021/03/10 02:02:07;;;;;;;10.75;6.80;;;;;;;;;;5013731;28;20069;-47
2021/03/10 02:04:33;;;;;;;11.07;7.22;;;;;;;;;;5013259;28;20038;-49
2021/03/10 02:07:21;;;;;;;10.82;6.50;;;;;;;;;;5013413;28;20022;-46
2021/03/10 02:10:02;;;;;;;10.32;6.70;;;;;;;;;;5013435;28;20030;-50
2021/03/10 02:12:45;;;;;;;12.32;7.35;;;;;;;;;;5013071;28;20030;-49
2021/03/10 02:15:31;;;;;;;12.52;6.68;;;;;;;;;;5013418;28;20440;-46
2021/03/10 02:18:02;;;;;;;11.18;6.78;;;;;;;;;;5003264;28;20044;-46
2021/03/10 02:20:38;;;;;;;11.23;7.13;;;;;;;;;;5013257;28;20024;-45
2021/03/10 02:23:13;;;;;;;10.95;6.97;;;;;;;;;;5013366;28;20080;-45
2021/03/10 02:25:42;;;;;;;11.35;6.78;;;;;;;;;;5013436;28;20378;-46
2021/03/10 02:28:08;;;;;;;11.65;6.72;;;;;;;;;;5013059;28;20116;-45
2021/03/10 02:30:36;;;;;;;11.38;7.03;;;;;;;;;;5013001;28;20036;-47
2021/03/10 02:33:04;;;;;;;10.52;6.47;;;;;;;;;;5013413;28;20018;-51
2021/03/10 02:35:31;;;;;;;12.15;6.90;;;;;;;;;;5013298;28;20029;-50
2021/03/10 02:37:59;;;;;;;9.50;6.32;;;;;;;;;;5013097;28;20095;-50
2021/03/10 02:40:26;;;;;;;10.57;6.10;;;;;;;;;;5013221;28;20331;-48
2021/03/10 02:42:53;;;;;;;9.80;6.70;;;;;;;;;;5012920;28;20033;-45
2021/03/10 02:45:23;;;;;;;9.88;6.85;;;;;;;;;;5270023;22;20057;-45
2021/03/10 02:47:50;;;;;;;10.43;5.90;;;;;;;;;;5031769;28;20025;-47
2021/03/10 02:50:16;;;;;;;8.55;5.22;;;;;;;;;;5031632;28;20041;-45
2021/03/10 02:52:43;;;;;;;12.07;7.53;;;;;;;;;;5031713;28;20022;-47
2021/03/10 02:55:09;;;;;;;10.35;6.95;;;;;;;;;;5031852;28;20029;-46
2021/03/10 02:57:36;;;;;;;11.05;6.70;;;;;;;;;;5031640;28;20033;-46
2021/03/10 03:00:07;;;;;;;12.05;6.30;;;;;;;;;;5031444;28;20053;-48
2021/03/10 03:02:33;;;;;;;11.32;7.28;;;;;;;;;;5031563;28;20029;-46
2021/03/10 03:04:59;;;;;;;12.00;6.72;;;;;;;;;;5031761;28;20029;-45
2021/03/10 03:07:25;;;;;;;12.20;7.30;;;;;;;;;;5031570;28;20040;-49
2021/03/10 03:09:51;;;;;;;12.35;7.20;;;;;;;;;;5031515;28;20383;-46
2021/03/10 03:12:18;;;;;;;12.25;8.00;;;;;;;;;;5031445;28;20025;-46
2021/03/10 03:14:44;;;;;;;13.32;7.95;;;;;;;;;;5031803;28;20373;-45
2021/03/10 03:17:11;;;;;;;12.30;7.40;;;;;;;;;;5038057;28;20076;-47
2021/03/10 03:19:38;;;;;;;14.00;7.90;;;;;;;;;;5038059;28;20025;-48
2021/03/10 03:22:04;;;;;;;13.23;7.25;;;;;;;;;;5038050;28;20034;-45
2021/03/10 03:24:30;;;;;;;11.18;7.60;;;;;;;;;;5037902;28;20025;-50
2021/03/10 03:26:58;;;;;;;11.00;7.20;;;;;;;;;;5037960;28;20032;-49
2021/03/10 03:29:26;;;;;;;10.70;7.30;;;;;;;;;;5037800;28;20057;-50
2021/03/10 03:31:53;;;;;;;15.48;8.27;;;;;;;;;;5037751;28;20025;-47
2021/03/10 03:34:19;;;;;;;11.73;8.00;;;;;;;;;;5037871;28;20026;-46
2021/03/10 03:36:45;;;;;;;13.75;7.75;;;;;;;;;;5037811;28;20025;-49
2021/03/10 03:39:12;;;;;;;13.23;8.20;;;;;;;;;;5038198;28;20045;-48
2021/03/10 03:41:39;;;;;;;13.52;7.20;;;;;;;;;;5037721;28;20076;-46
2021/03/10 03:44:05;;;;;;;13.40;8.82;;;;;;;;;;5037752;28;20033;-53
2021/03/10 03:46:32;;;;;;;14.98;8.90;;;;;;;;;;5037283;28;20512;-48
2021/03/10 03:48:59;;;;;;;15.05;9.45;;;;;;;;;;5037533;28;20032;-50
2021/03/10 03:51:26;;;;;;;14.38;9.43;;;;;;;;;;5037669;28;20480;-49
2021/03/10 03:53:56;;;;;;;16.05;9.77;;;;;;;;;;5037749;28;20028;-46
2021/03/10 03:56:22;;;;;;;14.73;9.68;;;;;;;;;;5037781;28;20033;-45
2021/03/10 03:58:48;;;;;;;15.60;9.02;;;;;;;;;;5037680;28;20614;-45
2021/03/10 04:01:14;;;;;;;14.55;10.02;;;;;;;;;;5037571;28;20080;-46
2021/03/10 04:03:41;;;;;;;17.17;10.85;;;;;;;;;;5037718;28;20029;-47
2021/03/10 04:06:07;;;;;;;17.77;10.98;;;;;;;;;;5037827;28;20022;-46
2021/03/10 04:08:34;;;;;;;20.38;11.45;;;;;;;;;;5037587;28;20104;-47
2021/03/10 04:11:00;;;;;;;18.13;10.52;;;;;;;;;;5037348;28;20040;-44
2021/03/10 04:13:26;;;;;;;15.63;10.02;;;;;;;;;;5037498;28;20021;-45
2021/03/10 04:15:52;;;;;;;16.42;10.05;;;;;;;;;;5037399;28;20398;-46
2021/03/10 04:18:18;;;;;;;16.35;10.00;;;;;;;;;;5037441;28;20053;-47
2021/03/10 04:20:44;;;;;;;17.77;10.70;;;;;;;;;;5037592;28;20051;-46
2021/03/10 04:23:10;;;;;;;17.40;10.93;;;;;;;;;;5037452;28;20018;-48
2021/03/10 04:25:37;;;;;;;18.58;10.77;;;;;;;;;;5037414;28;20030;-45
2021/03/10 04:28:03;;;;;;;15.63;9.73;;;;;;;;;;5033706;28;20018;-45
2021/03/10 04:30:29;;;;;;;18.65;10.68;;;;;;;;;;5033954;28;20128;-46
2021/03/10 04:32:56;;;;;;;17.02;10.18;;;;;;;;;;5034159;28;20040;-46
2021/03/10 04:35:22;;;;;;;18.58;10.30;;;;;;;;;;5034195;28;20025;-50
2021/03/10 04:37:48;;;;;;;17.70;10.25;;;;;;;;;;5034391;28;20022;-49
2021/03/10 04:40:15;;;;;;;15.88;9.63;;;;;;;;;;5034266;28;20017;-45
2021/03/10 04:42:42;;;;;;;14.88;9.00;;;;;;;;;;5033972;28;20108;-47
2021/03/10 04:45:09;;;;;;;19.33;10.43;;;;;;;;;;5034031;28;20633;-48
2021/03/10 04:47:36;;;;;;;13.90;9.00;;;;;;;;;;5034017;28;20037;-45
2021/03/10 04:50:06;;;;;;;17.95;10.38;;;;;;;;;;5033602;28;20033;-47
2021/03/10 04:52:32;;;;;;;16.15;9.57;;;;;;;;;;5034601;28;20084;-47
2021/03/10 04:54:58;;;;;;;16.42;9.73;;;;;;;;;;5034789;28;20391;-47
2021/03/10 04:57:24;;;;;;;14.15;9.27;;;;;;;;;;5034413;28;20538;-49
2021/03/10 04:59:50;;;;;;;15.25;9.98;;;;;;;;;;5034687;28;20017;-46
2021/03/10 05:02:16;;;;;;;17.33;10.88;;;;;;;;;;5034675;28;20357;-48
2021/03/10 05:04:42;;;;;;;15.13;10.30;;;;;;;;;;5034507;28;20116;-47
2021/03/10 05:07:08;;;;;;;14.07;9.75;;;;;;;;;;5034181;28;20044;-47
2021/03/10 05:09:34;;;;;;;13.73;9.43;;;;;;;;;;5034247;28;20033;-48
2021/03/10 05:12:01;;;;;;;15.88;10.48;;;;;;;;;;5034238;28;20021;-50
2021/03/10 05:14:27;;;;;;;13.45;9.40;;;;;;;;;;5034415;28;20029;-46
2021/03/10 05:16:53;;;;;;;16.05;10.23;;;;;;;;;;5033875;28;20063;-49
2021/03/10 05:19:19;;;;;;;17.05;10.20;;;;;;;;;;5034279;28;20021;-45
2021/03/10 05:21:45;;;;;;;15.35;10.00;;;;;;;;;;5033956;28;20030;-47
2021/03/10 05:24:11;;;;;;;17.67;11.52;;;;;;;;;;5033989;28;20025;-47
2021/03/10 05:26:38;;;;;;;15.50;11.07;;;;;;;;;;5033894;28;20022;-44
2021/03/10 05:29:04;;;;;;;16.67;11.52;;;;;;;;;;5034136;28;20057;-45
2021/03/10 05:31:30;;;;;;;15.00;10.45;;;;;;;;;;5033947;28;20036;-47
2021/03/10 05:33:56;;;;;;;19.83;11.65;;;;;;;;;;5033758;28;20029;-49
2021/03/10 05:36:22;;;;;;;18.45;11.90;;;;;;;;;;5033669;28;20026;-51
2021/03/10 05:38:49;;;;;;;18.67;12.02;;;;;;;;;;5033595;28;20029;-45
2021/03/10 05:41:15;;;;;;;19.63;11.80;;;;;;;;;;5033438;28;20079;-52
2021/03/10 05:43:42;;;;;;;19.48;12.75;;;;;;;;;;5033643;28;20031;-46
2021/03/10 05:46:08;;;;;;;19.63;12.32;;;;;;;;;;5033476;28;20072;-45
2021/03/10 05:48:35;;;;;;;21.83;12.68;;;;;;;;;;5033349;28;20025;-45
2021/03/10 05:51:02;;;;;;;17.77;11.60;;;;;;;;;;5033298;28;20037;-47
2021/03/10 05:53:29;;;;;;;20.65;12.80;;;;;;;;;;5033719;28;20017;-47
2021/03/10 05:56:02;;;;;;;20.20;12.23;;;;;;;;;;5032692;28;20033;-48
2021/03/10 05:58:29;;;;;;;23.67;13.18;;;;;;;;;;5033413;28;20044;-48
2021/03/10 06:00:55;;;;;;;19.52;12.57;;;;;;;;;;5033471;28;20380;-48
2021/03/10 06:03:21;;;;;;;18.00;13.13;;;;;;;;;;5033229;28;20021;-48
2021/03/10 06:05:57;;;;;;;19.75;12.38;;;;;;;;;;5033451;28;20120;-45
2021/03/10 06:08:26;;;;;;;20.10;12.85;;;;;;;;;;5033135;28;20037;-51
2021/03/10 06:10:52;;;;;;;19.25;13.43;;;;;;;;;;5033471;28;20037;-47
2021/03/10 06:13:19;;;;;;;19.85;12.60;;;;;;;;;;5033224;28;20048;-47
2021/03/10 06:15:46;;;;;;;19.00;12.48;;;;;;;;;;5033273;28;20032;-52
2021/03/10 06:18:22;;;;;;;20.02;12.73;;;;;;;;;;5032807;28;20021;-50
2021/03/10 06:20:48;;;;;;;18.42;12.10;;;;;;;;;;5033111;28;20022;-48
2021/03/10 06:23:15;;;;;;;22.60;11.70;;;;;;;;;;5033111;28;20040;-47
2021/03/10 06:25:41;;;;;;;16.88;11.65;;;;;;;;;;5033190;28;20057;-45
2021/03/10 06:28:07;;;;;;;19.08;12.05;;;;;;;;;;5032764;28;20025;-49
2021/03/10 06:30:51;;;;;;;17.70;11.23;;;;;;;;;;5032697;28;20061;-48
2021/03/10 06:33:21;;;;;;;23.70;12.25;;;;;;;;;;5032806;28;20040;-47
2021/03/10 06:35:47;;;;;;;17.92;11.27;;;;;;;;;;5032540;28;20025;-46
2021/03/10 06:38:15;;;;;;;17.40;10.70;;;;;;;;;;5032637;28;20064;-49
2021/03/10 06:40:48;;;;;;;16.60;11.15;;;;;;;;;;5035161;28;20108;-45
2021/03/10 06:43:14;;;;;;;17.67;10.93;;;;;;;;;;5052418;28;20112;-49
2021/03/10 06:45:40;;;;;;;21.58;11.73;;;;;;;;;;5052137;28;20072;-45
2021/03/10 06:48:19;;;;;;;19.10;12.13;;;;;;;;;;5041344;28;20352;-46
2021/03/10 06:50:46;;;;;;;17.00;10.43;;;;;;;;;;5031497;28;20548;-48
2021/03/10 06:53:12;;;;;;;16.77;10.55;;;;;;;;;;5032083;28;20040;-48
2021/03/10 06:55:42;;;;;;;17.50;10.18;;;;;;;;;;5031239;28;20615;-48
2021/03/10 06:58:09;;;;;;;19.52;11.70;;;;;;;;;;5044554;28;20078;-46
2021/03/10 07:00:35;;;;;;;15.82;10.15;;;;;;;;;;5052263;28;20349;-48
2021/03/10 07:03:01;;;;;;;18.90;10.55;;;;;;;;;;5051900;28;20333;-47
2021/03/10 07:05:29;;;;;;;18.98;11.73;;;;;;;;;;5052052;28;20017;-47
2021/03/10 07:07:55;;;;;;;17.00;10.65;;;;;;;;;;5047427;28;20422;-46
2021/03/10 07:10:22;;;;;;;20.83;10.35;;;;;;;;;;5030832;28;20065;-47
2021/03/10 07:12:49;;;;;;;22.38;11.70;;;;;;;;;;5031935;28;20033;-47
2021/03/10 07:15:15;;;;;;;17.92;11.13;;;;;;;;;;5032192;28;20040;-47
2021/03/10 07:17:43;;;;;;;17.73;11.30;;;;;;;;;;5031983;28;20049;-45
2021/03/10 07:20:09;;;;;;;17.58;10.48;;;;;;;;;;5031332;28;20025;-50
2021/03/10 07:22:38;;;;;;;19.38;10.85;;;;;;;;;;5032174;28;20035;-44
2021/03/10 07:25:09;;;;;;;16.20;10.88;;;;;;;;;;5031565;28;20121;-52
2021/03/10 07:27:46;;;;;;;16.73;10.63;;;;;;;;;;5030919;28;20491;-54
2021/03/10 07:30:12;;;;;;;15.32;9.50;;;;;;;;;;5031665;28;20084;-49
2021/03/10 07:32:38;;;;;;;17.13;10.52;;;;;;;;;;5031110;28;20044;-46
2021/03/10 07:35:08;;;;;;;17.77;9.88;;;;;;;;;;5030414;28;20112;-49
2021/03/10 07:37:35;;;;;;;19.23;10.32;;;;;;;;;;5032953;28;20423;-47
2021/03/10 07:40:11;;;;;;;19.63;11.60;;;;;;;;;;5042116;28;20360;-46
2021/03/10 07:42:48;;;;;;;20.52;11.55;;;;;;;;;;5040341;28;20087;-45
2021/03/10 07:45:15;;;;;;;18.45;9.65;;;;;;;;;;5037834;28;20046;-45
2021/03/10 07:47:51;;;;;;;19.38;10.43;;;;;;;;;;5044556;28;20025;-45
2021/03/10 07:50:17;;;;;;;19.83;12.13;;;;;;;;;;5046918;28;20033;-47
2021/03/10 07:52:50;;;;;;;21.20;11.57;;;;;;;;;;5031041;28;20065;-46
2021/03/10 07:55:16;;;;;;;28.30;17.92;;;;;;;;;;5025743;28;20526;-51
2021/03/10 07:57:53;;;;;;;30.20;17.42;;;;;;;;;;5034305;28;20040;-45
2021/03/10 08:00:19;;;;;;;25.83;15.55;;;;;;;;;;5025895;28;20033;-46
2021/03/10 08:02:47;;;;;;;27.02;16.50;;;;;;;;;;5050021;28;20080;-48
2021/03/10 08:05:20;;;;;;;20.65;14.25;;;;;;;;;;5037793;28;20082;-49
2021/03/10 08:07:46;;;;;;;23.00;15.68;;;;;;;;;;5040462;28;20018;-49
2021/03/10 08:10:13;;;;;;;25.80;17.20;;;;;;;;;;5037453;28;20047;-47
2021/03/10 08:12:42;;;;;;;28.48;18.85;;;;;;;;;;5034978;28;20134;-47
2021/03/10 08:15:19;;;;;;;42.35;26.00;;;;;;;;;;5043053;28;20537;-51
2021/03/10 08:17:45;;;;;;;54.13;29.55;;;;;;;;;;5035009;28;20024;-52
2021/03/10 08:20:12;;;;;;;50.92;25.92;;;;;;;;;;5034798;28;20026;-45
2021/03/10 08:22:38;;;;;;;45.33;25.30;;;;;;;;;;5035023;28;20029;-48
2021/03/10 08:25:05;;;;;;;53.03;28.65;;;;;;;;;;5034993;28;20029;-47
2021/03/10 08:27:37;;;;;;;49.47;28.92;;;;;;;;;;5034674;28;20021;-48
2021/03/10 08:30:05;;;;;;;52.72;31.35;;;;;;;;;;5034441;28;20045;-46
2021/03/10 08:32:32;;;;;;;40.53;24.25;;;;;;;;;;5034931;28;20029;-47
2021/03/10 08:35:06;;;;;;;41.08;23.13;;;;;;;;;;5034391;28;20037;-47
2021/03/10 08:37:32;;;;;;;35.85;20.90;;;;;;;;;;5022128;28;20041;-52
2021/03/10 08:39:59;;;;;;;38.13;20.88;;;;;;;;;;5032726;28;20021;-44
2021/03/10 08:42:25;;;;;;;38.10;20.40;;;;;;;;;;5032700;28;20025;-45
2021/03/10 08:44:52;;;;;;;27.40;15.57;;;;;;;;;;5033133;28;20026;-45
2021/03/10 08:47:20;;;;;;;20.60;13.27;;;;;;;;;;5036180;28;20532;-49
2021/03/10 08:49:51;;;;;;;18.58;11.00;;;;;;;;;;5036033;28;20095;-44
2021/03/10 08:52:17;;;;;;;19.23;11.23;;;;;;;;;;5053979;28;20025;-45
2021/03/10 08:54:46;;;;;;;14.48;8.80;;;;;;;;;;5053561;28;20033;-48
2021/03/10 08:57:13;;;;;;;14.68;8.48;;;;;;;;;;5054118;28;20053;-49
2021/03/10 08:59:39;;;;;;;16.35;8.32;;;;;;;;;;5038800;28;20075;-49
2021/03/10 09:02:05;;;;;;;14.38;7.25;;;;;;;;;;5041973;28;20025;-49
2021/03/10 09:04:31;;;;;;;16.48;8.93;;;;;;;;;;5038737;28;21366;-46
2021/03/10 09:06:59;;;;;;;13.35;7.43;;;;;;;;;;5037131;28;20412;-48
2021/03/10 09:09:25;;;;;;;17.48;8.88;;;;;;;;;;5039033;28;20128;-46
2021/03/10 09:11:53;;;;;;;16.20;9.07;;;;;;;;;;5036893;28;20048;-44
2021/03/10 09:14:19;;;;;;;15.82;8.25;;;;;;;;;;5038520;28;20487;-52
2021/03/10 09:16:53;;;;;;;14.88;8.82;;;;;;;;;;5038743;28;20559;-49
2021/03/10 09:19:31;;;;;;;14.60;8.60;;;;;;;;;;5041011;28;20104;-47
2021/03/10 09:22:09;;;;;;;13.85;8.40;;;;;;;;;;5037970;28;20026;-49
2021/03/10 09:24:55;;;;;;;11.93;7.38;;;;;;;;;;5021520;28;20033;-55
2021/03/10 09:27:25;;;;;;;13.98;8.90;;;;;;;;;;5039591;28;20451;-55
2021/03/10 09:29:52;;;;;;;11.82;6.97;;;;;;;;;;5031899;28;20453;-48
2021/03/10 09:32:18;;;;;;;13.57;7.20;;;;;;;;;;5013898;28;20033;-50
2021/03/10 09:34:48;;;;;;;9.77;6.10;;;;;;;;;;5036165;28;20052;-51
2021/03/10 09:37:14;;;;;;;9.57;5.85;;;;;;;;;;5033203;28;20679;-45
2021/03/10 09:39:48;;;;;;;11.80;6.75;;;;;;;;;;5033002;28;20361;-50
2021/03/10 09:42:15;;;;;;;10.93;6.50;;;;;;;;;;5052019;28;20049;-46
2021/03/10 09:47:14;;;;;;;10.05;5.68;;;;;;;;;;5052840;28;20032;-47
2021/03/10 09:49:47;;;;;;;12.07;7.10;;;;;;;;;;5052504;28;20116;-48
2021/03/10 09:52:13;;;;;;;11.25;6.40;;;;;;;;;;5052331;28;20024;-49
2021/03/10 09:54:49;;;;;;;14.77;7.68;;;;;;;;;;5046460;28;20121;-47
2021/03/10 09:57:22;;;;;;;13.77;8.25;;;;;;;;;;5042491;28;20028;-46
2021/03/10 09:59:48;;;;;;;9.80;6.20;;;;;;;;;;5052842;28;20056;-50
2021/03/10 10:02:15;;;;;;;9.63;6.38;;;;;;;;;;5052903;28;20483;-46
2021/03/10 10:04:42;;;;;;;11.15;7.00;;;;;;;;;;5052962;28;20072;-47
2021/03/10 10:07:11;;;;;;;13.05;7.13;;;;;;;;;;5052567;28;20444;-48
2021/03/10 10:09:37;;;;;;;12.98;6.88;;;;;;;;;;5053009;28;20044;-47
2021/03/10 10:12:04;;;;;;;19.40;9.60;;;;;;;;;;5052954;28;20033;-48
2021/03/10 10:14:30;;;;;;;11.13;6.00;;;;;;;;;;5052883;28;20158;-47
2021/03/10 10:16:56;;;;;;;14.15;7.47;;;;;;;;;;5048188;28;20057;-47
2021/03/10 10:19:22;;;;;;;13.80;7.30;;;;;;;;;;5034697;28;20020;-47
2021/03/10 10:21:50;;;;;;;11.65;5.53;;;;;;;;;;5042893;28;20355;-45
2021/03/10 10:24:16;;;;;;;11.77;6.85;;;;;;;;;;5042658;28;20445;-47
2021/03/10 10:26:42;;;;;;;8.93;6.40;;;;;;;;;;5040106;28;20030;-47
2021/03/10 10:29:08;;;;;;;11.68;6.85;;;;;;;;;;5024735;28;20024;-46
2021/03/10 10:31:38;;;;;;;11.10;5.85;;;;;;;;;;5044196;28;20076;-48
2021/03/10 10:34:04;;;;;;;12.15;6.60;;;;;;;;;;5042693;28;20124;-49
2021/03/10 10:36:30;;;;;;;12.20;6.32;;;;;;;;;;5048811;28;20080;-45
2021/03/10 10:38:56;;;;;;;11.68;6.95;;;;;;;;;;5042581;28;20056;-45
2021/03/10 10:41:22;;;;;;;12.70;7.25;;;;;;;;;;5040502;28;20025;-47
2021/03/10 10:43:48;;;;;;;14.43;7.03;;;;;;;;;;5042772;28;20035;-48
2021/03/10 10:46:14;;;;;;;16.17;8.10;;;;;;;;;;5041513;28;20046;-47
2021/03/10 10:48:40;;;;;;;15.35;9.07;;;;;;;;;;5040832;28;20037;-46
2021/03/10 10:51:07;;;;;;;13.98;6.72;;;;;;;;;;5040493;28;20037;-48
2021/03/10 10:53:33;;;;;;;17.98;9.50;;;;;;;;;;5039783;28;20357;-50
2021/03/10 10:55:59;;;;;;;14.05;7.88;;;;;;;;;;5036977;28;20460;-46
2021/03/10 10:58:25;;;;;;;16.35;8.35;;;;;;;;;;5040894;28;20021;-46
2021/03/10 11:00:51;;;;;;;12.07;7.53;;;;;;;;;;5042186;28;20025;-47
2021/03/10 11:03:17;;;;;;;11.55;6.63;;;;;;;;;;5037591;28;20025;-47
2021/03/10 11:05:43;;;;;;;11.02;5.70;;;;;;;;;;5037667;28;20025;-49
2021/03/10 11:08:10;;;;;;;12.25;6.45;;;;;;;;;;5043170;28;20052;-54
2021/03/10 11:10:36;;;;;;;13.35;7.50;;;;;;;;;;5034463;28;20033;-48
2021/03/10 11:13:02;;;;;;;12.90;6.75;;;;;;;;;;5040200;28;20029;-48
2021/03/10 11:15:28;;;;;;;14.45;7.13;;;;;;;;;;5041406;28;20031;-49
2021/03/10 11:17:54;;;;;;;12.38;6.63;;;;;;;;;;5037459;28;20096;-50
2021/03/10 11:20:21;;;;;;;16.05;9.07;;;;;;;;;;5042277;28;20034;-46
2021/03/10 11:22:47;;;;;;;13.85;7.32;;;;;;;;;;5034621;28;20029;-47
2021/03/10 11:25:13;;;;;;;13.55;6.97;;;;;;;;;;5031778;28;20025;-47
2021/03/10 11:27:39;;;;;;;14.00;7.43;;;;;;;;;;5031646;28;20080;-46
2021/03/10 11:30:06;;;;;;;15.75;8.65;;;;;;;;;;5031668;28;20037;-46
2021/03/10 11:32:32;;;;;;;16.17;9.27;;;;;;;;;;5031881;28;20065;-47
2021/03/10 11:34:59;;;;;;;14.93;8.38;;;;;;;;;;5031814;28;20025;-50
2021/03/10 11:37:25;;;;;;;15.48;8.35;;;;;;;;;;5034553;28;20354;-47
2021/03/10 11:39:51;;;;;;;14.20;7.50;;;;;;;;;;5036252;28;20021;-45
2021/03/10 11:42:17;;;;;;;15.18;7.95;;;;;;;;;;5035796;28;20018;-45
2021/03/10 11:44:43;;;;;;;15.52;8.75;;;;;;;;;;5035684;28;20645;-46
2021/03/10 11:47:10;;;;;;;14.80;8.18;;;;;;;;;;5036260;28;20361;-46
2021/03/10 11:49:36;;;;;;;11.25;6.75;;;;;;;;;;5036203;28;20044;-48
2021/03/10 11:52:03;;;;;;;12.85;7.40;;;;;;;;;;5035923;28;20029;-48
2021/03/10 11:54:29;;;;;;;11.85;6.18;;;;;;;;;;5035786;28;20056;-50
2021/03/10 11:56:55;;;;;;;13.88;7.15;;;;;;;;;;5035646;28;20025;-47
2021/03/10 11:59:23;;;;;;;14.35;7.50;;;;;;;;;;5035767;28;20568;-47
2021/03/10 12:01:49;;;;;;;16.23;9.45;;;;;;;;;;5035915;28;20053;-44
2021/03/10 12:04:15;;;;;;;11.25;6.95;;;;;;;;;;5035624;28;20018;-44
2021/03/10 12:06:41;;;;;;;14.98;7.53;;;;;;;;;;5035890;28;20075;-50
2021/03/10 12:09:07;;;;;;;9.43;5.43;;;;;;;;;;5035963;28;20458;-46
2021/03/10 12:11:34;;;;;;;9.98;5.97;;;;;;;;;;5035094;28;20036;-44
2021/03/10 12:14:00;;;;;;;9.20;5.00;;;;;;;;;;5035694;28;20376;-48
2021/03/10 12:16:26;;;;;;;15.65;8.43;;;;;;;;;;5035733;28;20464;-48
2021/03/10 12:18:52;;;;;;;12.02;6.65;;;;;;;;;;5035357;28;20108;-47
2021/03/10 12:21:19;;;;;;;15.90;7.97;;;;;;;;;;5035059;28;20036;-50
2021/03/10 12:23:45;;;;;;;16.13;8.73;;;;;;;;;;5035288;28;20479;-45
2021/03/10 12:26:11;;;;;;;10.65;5.88;;;;;;;;;;5035316;28;20117;-47
2021/03/10 12:28:37;;;;;;;10.93;5.68;;;;;;;;;;5035490;28;20022;-48
2021/03/10 12:31:03;;;;;;;12.82;6.63;;;;;;;;;;5035249;28;20052;-48
2021/03/10 12:33:29;;;;;;;18.40;9.15;;;;;;;;;;5035103;28;20043;-46
2021/03/10 12:35:55;;;;;;;18.23;9.60;;;;;;;;;;5035167;28;20354;-47
2021/03/10 12:38:22;;;;;;;15.70;8.40;;;;;;;;;;5034947;28;20076;-46
2021/03/10 12:40:48;;;;;;;14.50;8.68;;;;;;;;;;5035165;28;20102;-48
2021/03/10 12:43:14;;;;;;;12.25;6.20;;;;;;;;;;5034814;28;20029;-47
2021/03/10 12:45:40;;;;;;;15.02;7.82;;;;;;;;;;5034731;28;20049;-49
2021/03/10 12:48:06;;;;;;;13.48;7.50;;;;;;;;;;5033979;28;20022;-46
2021/03/10 12:50:32;;;;;;;9.57;5.88;;;;;;;;;;5034501;28;20040;-45
2021/03/10 12:52:58;;;;;;;10.50;5.78;;;;;;;;;;5034757;28;20457;-48
2021/03/10 12:55:24;;;;;;;9.50;5.20;;;;;;;;;;5034863;28;20056;-50
2021/03/10 12:57:51;;;;;;;11.30;6.35;;;;;;;;;;5034953;28;20352;-48
2021/03/10 13:00:17;;;;;;;24.85;11.23;;;;;;;;;;5034825;28;20026;-49
2021/03/10 13:02:46;;;;;;;14.05;6.50;;;;;;;;;;5034693;28;20056;-47
2021/03/10 13:05:13;;;;;;;17.58;10.00;;;;;;;;;;5034608;28;20032;-48
2021/03/10 13:07:39;;;;;;;13.23;7.30;;;;;;;;;;5034351;28;20025;-47
2021/03/10 13:10:05;;;;;;;16.45;7.95;;;;;;;;;;5034668;28;20038;-47
2021/03/10 13:12:34;;;;;;;14.77;7.25;;;;;;;;;;5034463;28;20040;-46
2021/03/10 13:15:00;;;;;;;14.20;8.13;;;;;;;;;;5034339;28;20060;-46
2021/03/10 13:17:26;;;;;;;13.02;7.90;;;;;;;;;;5034188;28;20623;-45
2021/03/10 13:19:52;;;;;;;9.18;5.18;;;;;;;;;;5034436;28;20025;-47
2021/03/10 13:22:19;;;;;;;7.97;4.38;;;;;;;;;;5034257;28;20037;-47
2021/03/10 13:24:45;;;;;;;16.40;7.05;;;;;;;;;;5034139;28;20048;-44
2021/03/10 13:27:11;;;;;;;10.57;5.15;;;;;;;;;;5034022;28;20112;-47
2021/03/10 13:29:37;;;;;;;12.90;7.10;;;;;;;;;;5034177;28;20109;-46
2021/03/10 13:32:04;;;;;;;13.80;7.53;;;;;;;;;;5034177;28;20076;-48
2021/03/10 13:34:30;;;;;;;12.23;6.65;;;;;;;;;;5033850;28;20484;-47
2021/03/10 13:36:56;;;;;;;12.20;6.55;;;;;;;;;;5033643;28;20029;-47
2021/03/10 13:39:22;;;;;;;16.65;8.38;;;;;;;;;;5033853;28;20033;-46
2021/03/10 13:41:48;;;;;;;14.73;8.27;;;;;;;;;;5033441;28;20022;-46
2021/03/10 13:44:14;;;;;;;17.45;9.43;;;;;;;;;;5034159;28;20365;-50
2021/03/10 13:46:41;;;;;;;18.20;9.23;;;;;;;;;;5033513;28;20042;-47
2021/03/10 13:49:07;;;;;;;14.77;8.35;;;;;;;;;;5033611;28;20025;-48
2021/03/10 13:51:33;;;;;;;15.20;8.48;;;;;;;;;;5033425;28;20029;-48
2021/03/10 13:53:59;;;;;;;12.38;7.13;;;;;;;;;;5036887;28;20017;-48
2021/03/10 13:56:25;;;;;;;14.60;7.80;;;;;;;;;;5051928;28;20105;-49
2021/03/10 13:58:51;;;;;;;16.77;9.35;;;;;;;;;;5053169;28;20027;-47
2021/03/10 14:01:18;;;;;;;14.98;8.38;;;;;;;;;;5052886;28;20452;-47
2021/03/10 14:03:44;;;;;;;18.92;9.95;;;;;;;;;;5052698;28;20017;-47
2021/03/10 14:06:10;;;;;;;14.20;7.35;;;;;;;;;;5053038;28;20602;-50
2021/03/10 14:08:38;;;;;;;16.17;8.00;;;;;;;;;;5052629;28;20029;-48
2021/03/10 14:11:04;;;;;;;16.23;7.97;;;;;;;;;;5052783;28;20040;-45
2021/03/10 14:13:30;;;;;;;12.55;6.05;;;;;;;;;;5053144;28;20052;-47
2021/03/10 14:15:56;;;;;;;13.20;7.20;;;;;;;;;;5052794;28;20029;-49
2021/03/10 14:18:23;;;;;;;15.68;7.93;;;;;;;;;;5052773;28;20033;-46
2021/03/10 14:20:49;;;;;;;9.32;5.40;;;;;;;;;;5053280;28;20021;-48
2021/03/10 14:23:15;;;;;;;15.68;8.55;;;;;;;;;;5053102;28;20055;-49
2021/03/10 14:25:41;;;;;;;16.73;8.63;;;;;;;;;;5052893;28;20035;-46
2021/03/10 14:28:07;;;;;;;17.52;8.90;;;;;;;;;;5052863;28;20025;-45